sensor_id;sensor_type;location;lat;lon;timestamp;pressure;altitude;pressure_sealevel;temperature;humidity
50394;BME280;36308;46.312;25.288;2023-05-16T00:01:37;95728.88;;;14.80;57.94
50394;BME280;36308;46.312;25.288;2023-05-16T00:04:03;95732.97;;;14.78;58.26
50394;BME280;36308;46.312;25.288;2023-05-16T00:06:30;95734.34;;;14.75;58.30
50394;BME280;36308;46.312;25.288;2023-05-16T00:08:56;95730.03;;;14.74;58.42
50394;BME280;36308;46.312;25.288;2023-05-16T00:11:21;95729.00;;;14.70;58.31
50394;BME280;36308;46.312;25.288;2023-05-16T00:13:47;95735.00;;;14.67;58.19
50394;BME280;36308;46.312;25.288;2023-05-16T00:16:13;95732.88;;;14.64;57.98
50394;BME280;36308;46.312;25.288;2023-05-16T00:18:39;95728.63;;;14.58;58.17
50394;BME280;36308;46.312;25.288;2023-05-16T00:21:05;95730.81;;;14.55;58.38
50394;BME280;36308;46.312;25.288;2023-05-16T00:23:31;95739.47;;;14.52;58.62
50394;BME280;36308;46.312;25.288;2023-05-16T00:25:57;95737.09;;;14.51;58.85
50394;BME280;36308;46.312;25.288;2023-05-16T00:28:22;95727.63;;;14.48;58.61
50394;BME280;36308;46.312;25.288;2023-05-16T00:30:48;95724.19;;;14.43;58.56
50394;BME280;36308;46.312;25.288;2023-05-16T00:33:14;95729.59;;;14.43;58.97
50394;BME280;36308;46.312;25.288;2023-05-16T00:35:39;95727.97;;;14.42;58.96
50394;BME280;36308;46.312;25.288;2023-05-16T00:38:05;95731.00;;;14.40;59.20
50394;BME280;36308;46.312;25.288;2023-05-16T00:40:30;95730.16;;;14.40;59.09
50394;BME280;36308;46.312;25.288;2023-05-16T00:42:56;95726.66;;;14.39;59.22
50394;BME280;36308;46.312;25.288;2023-05-16T00:45:22;95727.78;;;14.38;59.51
50394;BME280;36308;46.312;25.288;2023-05-16T00:47:49;95737.75;;;14.38;59.40
50394;BME280;36308;46.312;25.288;2023-05-16T00:50:16;95735.38;;;14.36;59.39
50394;BME280;36308;46.312;25.288;2023-05-16T00:52:42;95728.34;;;14.35;59.38
50394;BME280;36308;46.312;25.288;2023-05-16T00:55:08;95733.22;;;14.33;59.41
50394;BME280;36308;46.312;25.288;2023-05-16T00:57:36;95737.03;;;14.32;59.57
50394;BME280;36308;46.312;25.288;2023-05-16T01:00:04;95738.13;;;14.31;59.81
50394;BME280;36308;46.312;25.288;2023-05-16T01:02:31;95736.53;;;14.30;59.75
50394;BME280;36308;46.312;25.288;2023-05-16T01:04:59;95736.00;;;14.28;59.92
50394;BME280;36308;46.312;25.288;2023-05-16T01:07:24;95739.78;;;14.27;59.88
50394;BME280;36308;46.312;25.288;2023-05-16T01:09:50;95731.69;;;14.27;60.07
50394;BME280;36308;46.312;25.288;2023-05-16T01:15:29;95750.09;;;14.25;60.18
50394;BME280;36308;46.312;25.288;2023-05-16T01:21:22;95746.88;;;14.23;60.46
50394;BME280;36308;46.312;25.288;2023-05-16T01:24:21;95737.69;;;14.24;60.43
50394;BME280;36308;46.312;25.288;2023-05-16T01:26:48;95750.09;;;14.25;60.54
50394;BME280;36308;46.312;25.288;2023-05-16T01:29:15;95753.31;;;14.27;60.73
50394;BME280;36308;46.312;25.288;2023-05-16T01:31:41;95753.31;;;14.27;60.60
50394;BME280;36308;46.312;25.288;2023-05-16T01:34:06;95753.31;;;14.27;60.60
50394;BME280;36308;46.312;25.288;2023-05-16T01:36:47;95751.13;;;14.29;60.78
50394;BME280;36308;46.312;25.288;2023-05-16T01:39:44;95738.13;;;14.31;60.86
50394;BME280;36308;46.312;25.288;2023-05-16T01:42:13;95742.97;;;14.34;60.86
50394;BME280;36308;46.312;25.288;2023-05-16T01:44:47;95743.75;;;14.34;61.08
50394;BME280;36308;46.312;25.288;2023-05-16T01:47:16;95744.03;;;14.33;60.91
50394;BME280;36308;46.312;25.288;2023-05-16T01:49:49;95752.41;;;14.37;61.02
50394;BME280;36308;46.312;25.288;2023-05-16T01:52:21;95744.56;;;14.35;61.21
50394;BME280;36308;46.312;25.288;2023-05-16T01:54:51;95751.59;;;14.36;61.33
50394;BME280;36308;46.312;25.288;2023-05-16T01:57:18;95753.19;;;14.37;61.20
50394;BME280;36308;46.312;25.288;2023-05-16T01:59:47;95756.69;;;14.38;61.19
50394;BME280;36308;46.312;25.288;2023-05-16T02:02:19;95758.03;;;14.40;61.72
50394;BME280;36308;46.312;25.288;2023-05-16T02:04:44;95772.09;;;14.42;61.45
50394;BME280;36308;46.312;25.288;2023-05-16T02:07:11;95775.28;;;14.44;61.60
50394;BME280;36308;46.312;25.288;2023-05-16T02:09:38;95775.28;;;14.44;61.67
50394;BME280;36308;46.312;25.288;2023-05-16T02:12:04;95765.56;;;14.43;61.83
50394;BME280;36308;46.312;25.288;2023-05-16T02:14:29;95775.28;;;14.44;61.66
50394;BME280;36308;46.312;25.288;2023-05-16T02:16:55;95784.72;;;14.47;61.84
50394;BME280;36308;46.312;25.288;2023-05-16T02:19:21;95783.34;;;14.49;61.83
50394;BME280;36308;46.312;25.288;2023-05-16T02:21:46;95784.16;;;14.50;61.83
50394;BME280;36308;46.312;25.288;2023-05-16T02:24:12;95783.06;;;14.51;62.23
50394;BME280;36308;46.312;25.288;2023-05-16T02:26:37;95781.16;;;14.51;62.15
50394;BME280;36308;46.312;25.288;2023-05-16T02:29:04;95784.38;;;14.53;61.86
50394;BME280;36308;46.312;25.288;2023-05-16T02:31:30;95791.38;;;14.54;62.22
50394;BME280;36308;46.312;25.288;2023-05-16T02:33:57;95796.53;;;14.56;62.32
50394;BME280;36308;46.312;25.288;2023-05-16T02:36:23;95795.16;;;14.59;62.11
50394;BME280;36308;46.312;25.288;2023-05-16T02:38:50;95793.03;;;14.55;61.87
50394;BME280;36308;46.312;25.288;2023-05-16T02:41:16;95792.44;;;14.59;61.72
50394;BME280;36308;46.312;25.288;2023-05-16T02:43:41;95794.88;;;14.60;61.84
50394;BME280;36308;46.312;25.288;2023-05-16T02:48:45;95808.91;;;14.62;61.74
50394;BME280;36308;46.312;25.288;2023-05-16T02:51:11;95805.13;;;14.63;61.94
50394;BME280;36308;46.312;25.288;2023-05-16T02:53:36;95802.13;;;14.65;61.64
50394;BME280;36308;46.312;25.288;2023-05-16T02:56:02;95810.75;;;14.67;61.54
50394;BME280;36308;46.312;25.288;2023-05-16T02:58:31;95796.16;;;14.68;61.87
50394;BME280;36308;46.312;25.288;2023-05-16T03:00:56;95803.16;;;14.69;61.92
50394;BME280;36308;46.312;25.288;2023-05-16T03:03:22;95810.19;;;14.70;62.33
50394;BME280;36308;46.312;25.288;2023-05-16T03:05:48;95825.63;;;14.69;62.12
50394;BME280;36308;46.312;25.288;2023-05-16T03:08:14;95814.28;;;14.67;61.92
50394;BME280;36308;46.312;25.288;2023-05-16T03:10:39;95821.00;;;14.70;62.08
50394;BME280;36308;46.312;25.288;2023-05-16T03:13:05;95829.41;;;14.68;62.49
50394;BME280;36308;46.312;25.288;2023-05-16T03:15:30;95825.41;;;14.66;62.52
50394;BME280;36308;46.312;25.288;2023-05-16T03:17:56;95841.88;;;14.69;62.76
50394;BME280;36308;46.312;25.288;2023-05-16T03:20:21;95848.06;;;14.70;62.87
50394;BME280;36308;46.312;25.288;2023-05-16T03:22:47;95849.66;;;14.71;63.06
50394;BME280;36308;46.312;25.288;2023-05-16T03:25:12;95850.50;;;14.71;63.03
50394;BME280;36308;46.312;25.288;2023-05-16T03:27:38;95846.97;;;14.71;63.36
50394;BME280;36308;46.312;25.288;2023-05-16T03:30:04;95851.59;;;14.70;63.80
50394;BME280;36308;46.312;25.288;2023-05-16T03:32:30;95859.69;;;14.70;63.67
50394;BME280;36308;46.312;25.288;2023-05-16T03:34:55;95863.50;;;14.69;63.88
50394;BME280;36308;46.312;25.288;2023-05-16T03:37:21;95866.22;;;14.69;64.16
50394;BME280;36308;46.312;25.288;2023-05-16T03:39:46;95864.31;;;14.70;64.41
50394;BME280;36308;46.312;25.288;2023-05-16T03:42:12;95856.47;;;14.68;64.51
50394;BME280;36308;46.312;25.288;2023-05-16T03:44:37;95851.84;;;14.69;64.83
50394;BME280;36308;46.312;25.288;2023-05-16T03:47:04;95845.38;;;14.70;64.96
50394;BME280;36308;46.312;25.288;2023-05-16T03:49:29;95843.47;;;14.70;64.97
50394;BME280;36308;46.312;25.288;2023-05-16T03:51:55;95852.69;;;14.69;65.14
50394;BME280;36308;46.312;25.288;2023-05-16T03:54:21;95855.91;;;14.71;65.33
50394;BME280;36308;46.312;25.288;2023-05-16T03:56:46;95835.06;;;14.72;65.25
50394;BME280;36308;46.312;25.288;2023-05-16T03:59:12;95835.84;;;14.72;65.64
50394;BME280;36308;46.312;25.288;2023-05-16T04:01:37;95834.47;;;14.75;65.76
50394;BME280;36308;46.312;25.288;2023-05-16T04:04:03;95836.91;;;14.77;65.70
50394;BME280;36308;46.312;25.288;2023-05-16T04:06:28;95836.63;;;14.78;65.96
50394;BME280;36308;46.312;25.288;2023-05-16T04:08:54;95842.53;;;14.80;65.83
50394;BME280;36308;46.312;25.288;2023-05-16T04:11:20;95840.34;;;14.82;66.11
50394;BME280;36308;46.312;25.288;2023-05-16T04:13:46;95837.88;;;14.86;65.85
50394;BME280;36308;46.312;25.288;2023-05-16T04:16:11;95844.63;;;14.88;65.47
50394;BME280;36308;46.312;25.288;2023-05-16T04:18:37;95837.53;;;14.92;65.69
50394;BME280;36308;46.312;25.288;2023-05-16T04:21:03;95847.75;;;14.95;65.86
50394;BME280;36308;46.312;25.288;2023-05-16T04:23:28;95845.00;;;15.01;65.43
50394;BME280;36308;46.312;25.288;2023-05-16T04:25:54;95843.84;;;15.07;65.80
50394;BME280;36308;46.312;25.288;2023-05-16T04:28:21;95847.59;;;15.11;65.76
50394;BME280;36308;46.312;25.288;2023-05-16T04:30:47;95843.72;;;15.17;65.26
50394;BME280;36308;46.312;25.288;2023-05-16T04:33:13;95843.13;;;15.20;65.48
50394;BME280;36308;46.312;25.288;2023-05-16T04:35:38;95850.88;;;15.27;65.56
50394;BME280;36308;46.312;25.288;2023-05-16T04:38:04;95848.91;;;15.32;65.67
50394;BME280;36308;46.312;25.288;2023-05-16T04:40:29;95854.25;;;15.38;65.71
50394;BME280;36308;46.312;25.288;2023-05-16T04:42:55;95858.50;;;15.44;65.80
50394;BME280;36308;46.312;25.288;2023-05-16T04:45:20;95851.38;;;15.48;65.66
50394;BME280;36308;46.312;25.288;2023-05-16T04:47:46;95849.13;;;15.55;64.94
50394;BME280;36308;46.312;25.288;2023-05-16T04:50:12;95850.44;;;15.57;64.81
50394;BME280;36308;46.312;25.288;2023-05-16T04:52:39;95844.72;;;15.59;64.99
50394;BME280;36308;46.312;25.288;2023-05-16T04:55:05;95854.97;;;15.62;64.87
50394;BME280;36308;46.312;25.288;2023-05-16T04:57:30;95857.91;;;15.66;64.57
50394;BME280;36308;46.312;25.288;2023-05-16T04:59:56;95852.44;;;15.71;64.71
50394;BME280;36308;46.312;25.288;2023-05-16T05:02:21;95859.69;;;15.75;64.18
50394;BME280;36308;46.312;25.288;2023-05-16T05:04:47;95850.97;;;15.79;64.52
50394;BME280;36308;46.312;25.288;2023-05-16T05:07:12;95856.00;;;15.85;64.39
50394;BME280;36308;46.312;25.288;2023-05-16T05:09:38;95848.59;;;15.91;64.13
50394;BME280;36308;46.312;25.288;2023-05-16T05:12:04;95845.81;;;15.96;63.52
50394;BME280;36308;46.312;25.288;2023-05-16T05:14:30;95853.84;;;16.01;63.57
50394;BME280;36308;46.312;25.288;2023-05-16T05:16:55;95859.22;;;16.06;63.53
50394;BME280;36308;46.312;25.288;2023-05-16T05:19:21;95849.38;;;16.10;63.38
50394;BME280;36308;46.312;25.288;2023-05-16T05:21:46;95843.34;;;16.13;63.19
50394;BME280;36308;46.312;25.288;2023-05-16T05:24:12;95845.47;;;16.16;63.37
50394;BME280;36308;46.312;25.288;2023-05-16T05:26:37;95847.47;;;16.25;63.16
50394;BME280;36308;46.312;25.288;2023-05-16T05:29:03;95850.91;;;16.30;62.89
50394;BME280;36308;46.312;25.288;2023-05-16T05:31:29;95847.91;;;16.32;62.81
50394;BME280;36308;46.312;25.288;2023-05-16T05:33:54;95844.50;;;16.40;62.66
50394;BME280;36308;46.312;25.288;2023-05-16T05:36:21;95849.03;;;16.45;62.78
50394;BME280;36308;46.312;25.288;2023-05-16T05:38:46;95845.91;;;16.51;62.79
50394;BME280;36308;46.312;25.288;2023-05-16T05:41:12;95853.19;;;16.56;62.70
50394;BME280;36308;46.312;25.288;2023-05-16T05:43:38;95846.56;;;16.62;62.33
50394;BME280;36308;46.312;25.288;2023-05-16T05:46:04;95842.94;;;16.67;62.17
50394;BME280;36308;46.312;25.288;2023-05-16T05:48:29;95840.09;;;16.72;62.27
50394;BME280;36308;46.312;25.288;2023-05-16T05:50:56;95841.91;;;16.76;62.25
50394;BME280;36308;46.312;25.288;2023-05-16T05:53:22;95824.81;;;16.76;60.52
50394;BME280;36308;46.312;25.288;2023-05-16T05:55:47;95832.50;;;16.88;59.85
50394;BME280;36308;46.312;25.288;2023-05-16T05:58:13;95835.09;;;16.93;59.89
50394;BME280;36308;46.312;25.288;2023-05-16T06:00:38;95839.53;;;17.03;59.87
50394;BME280;36308;46.312;25.288;2023-05-16T06:03:04;95832.88;;;17.09;59.09
50394;BME280;36308;46.312;25.288;2023-05-16T06:05:29;95830.03;;;17.14;59.11
50394;BME280;36308;46.312;25.288;2023-05-16T06:07:55;95833.16;;;17.21;58.83
50394;BME280;36308;46.312;25.288;2023-05-16T06:10:20;95834.66;;;17.27;59.18
50394;BME280;36308;46.312;25.288;2023-05-16T06:12:46;95829.94;;;17.33;59.08
50394;BME280;36308;46.312;25.288;2023-05-16T06:15:11;95833.31;;;17.38;59.07
50394;BME280;36308;46.312;25.288;2023-05-16T06:17:37;95835.13;;;17.43;58.68
50394;BME280;36308;46.312;25.288;2023-05-16T06:20:03;95828.28;;;17.46;58.82
50394;BME280;36308;46.312;25.288;2023-05-16T06:22:29;95828.16;;;17.51;58.51
50394;BME280;36308;46.312;25.288;2023-05-16T06:24:54;95836.69;;;17.58;58.45
50394;BME280;36308;46.312;25.288;2023-05-16T06:27:20;95828.53;;;17.58;58.79
50394;BME280;36308;46.312;25.288;2023-05-16T06:29:45;95834.53;;;17.69;58.78
50394;BME280;36308;46.312;25.288;2023-05-16T06:32:10;95844.50;;;17.73;59.01
50394;BME280;36308;46.312;25.288;2023-05-16T06:34:36;95835.09;;;17.80;58.93
50394;BME280;36308;46.312;25.288;2023-05-16T06:37:02;95833.91;;;17.86;59.06
50394;BME280;36308;46.312;25.288;2023-05-16T06:39:28;95832.66;;;17.92;58.81
50394;BME280;36308;46.312;25.288;2023-05-16T06:41:53;95833.03;;;17.99;58.84
50394;BME280;36308;46.312;25.288;2023-05-16T06:44:19;95824.75;;;18.04;58.96
50394;BME280;36308;46.312;25.288;2023-05-16T06:46:44;95821.59;;;18.11;58.95
50394;BME280;36308;46.312;25.288;2023-05-16T06:49:10;95816.03;;;18.16;59.16
50394;BME280;36308;46.312;25.288;2023-05-16T06:51:35;95817.16;;;18.24;58.91
50394;BME280;36308;46.312;25.288;2023-05-16T06:54:01;95817.53;;;18.31;58.69
50394;BME280;36308;46.312;25.288;2023-05-16T06:56:26;95806.50;;;18.36;58.71
50394;BME280;36308;46.312;25.288;2023-05-16T06:58:53;95814.22;;;18.43;58.68
50394;BME280;36308;46.312;25.288;2023-05-16T07:01:18;95811.56;;;18.51;58.61
50394;BME280;36308;46.312;25.288;2023-05-16T07:03:44;95810.31;;;18.57;58.39
50394;BME280;36308;46.312;25.288;2023-05-16T07:06:09;95805.19;;;18.65;58.33
50394;BME280;36308;46.312;25.288;2023-05-16T07:08:35;95799.63;;;18.70;58.08
50394;BME280;36308;46.312;25.288;2023-05-16T07:11:01;95804.28;;;18.78;57.89
50394;BME280;36308;46.312;25.288;2023-05-16T07:13:26;95799.22;;;18.85;57.67
50394;BME280;36308;46.312;25.288;2023-05-16T07:15:52;95800.66;;;18.91;57.55
50394;BME280;36308;46.312;25.288;2023-05-16T07:18:18;95792.03;;;18.98;57.53
50394;BME280;36308;46.312;25.288;2023-05-16T07:20:43;95785.78;;;18.97;57.51
50394;BME280;36308;46.312;25.288;2023-05-16T07:23:10;95807.75;;;19.10;57.26
50394;BME280;36308;46.312;25.288;2023-05-16T07:25:35;95800.22;;;19.07;57.09
50394;BME280;36308;46.312;25.288;2023-05-16T07:28:01;95811.78;;;19.21;57.01
50394;BME280;36308;46.312;25.288;2023-05-16T07:30:27;95805.69;;;19.24;57.00
50394;BME280;36308;46.312;25.288;2023-05-16T07:32:52;95806.81;;;19.32;56.81
50394;BME280;36308;46.312;25.288;2023-05-16T07:35:18;95825.94;;;19.41;56.93
50394;BME280;36308;46.312;25.288;2023-05-16T07:37:43;95820.78;;;19.48;56.93
50394;BME280;36308;46.312;25.288;2023-05-16T07:40:10;95815.69;;;19.55;56.56
50394;BME280;36308;46.312;25.288;2023-05-16T07:42:35;95816.16;;;19.57;56.38
50394;BME280;36308;46.312;25.288;2023-05-16T07:45:01;95811.66;;;19.61;56.43
50394;BME280;36308;46.312;25.288;2023-05-16T07:47:27;95816.00;;;19.79;56.23
50394;BME280;36308;46.312;25.288;2023-05-16T07:49:52;95811.97;;;19.86;56.02
50394;BME280;36308;46.312;25.288;2023-05-16T07:52:18;95811.66;;;19.96;56.08
50394;BME280;36308;46.312;25.288;2023-05-16T07:54:45;95807.31;;;20.04;55.84
50394;BME280;36308;46.312;25.288;2023-05-16T07:57:13;95807.63;;;20.11;55.93
50394;BME280;36308;46.312;25.288;2023-05-16T07:59:39;95804.69;;;20.25;55.93
50394;BME280;36308;46.312;25.288;2023-05-16T08:02:05;95810.59;;;20.35;55.65
50394;BME280;36308;46.312;25.288;2023-05-16T08:04:30;95816.53;;;20.46;55.42
50394;BME280;36308;46.312;25.288;2023-05-16T08:06:56;95820.03;;;20.55;55.24
50394;BME280;36308;46.312;25.288;2023-05-16T08:09:22;95821.28;;;20.67;55.09
50394;BME280;36308;46.312;25.288;2023-05-16T08:11:47;95813.56;;;20.77;54.85
50394;BME280;36308;46.312;25.288;2023-05-16T08:14:13;95816.72;;;20.88;54.80
50394;BME280;36308;46.312;25.288;2023-05-16T08:16:38;95810.19;;;21.02;54.52
50394;BME280;36308;46.312;25.288;2023-05-16T08:19:04;95820.09;;;21.15;54.07
50394;BME280;36308;46.312;25.288;2023-05-16T08:21:29;95797.09;;;21.16;53.60
50394;BME280;36308;46.312;25.288;2023-05-16T08:23:56;95809.66;;;21.38;53.60
50394;BME280;36308;46.312;25.288;2023-05-16T08:26:21;95812.81;;;21.49;53.25
50394;BME280;36308;46.312;25.288;2023-05-16T08:28:47;95817.91;;;21.59;53.22
50394;BME280;36308;46.312;25.288;2023-05-16T08:31:14;95812.03;;;21.69;52.65
50394;BME280;36308;46.312;25.288;2023-05-16T08:33:39;95808.41;;;21.77;52.47
50394;BME280;36308;46.312;25.288;2023-05-16T08:36:05;95810.28;;;21.86;52.37
50394;BME280;36308;46.312;25.288;2023-05-16T08:38:30;95795.72;;;21.94;51.91
50394;BME280;36308;46.312;25.288;2023-05-16T08:40:56;95799.16;;;22.03;51.89
50394;BME280;36308;46.312;25.288;2023-05-16T08:43:22;95793.25;;;22.13;51.57
50394;BME280;36308;46.312;25.288;2023-05-16T08:45:48;95788.59;;;22.14;51.15
50394;BME280;36308;46.312;25.288;2023-05-16T08:48:17;95788.78;;;22.30;51.00
50394;BME280;36308;46.312;25.288;2023-05-16T08:50:46;95791.41;;;22.38;50.97
50394;BME280;36308;46.312;25.288;2023-05-16T08:53:14;95791.66;;;22.46;50.96
50394;BME280;36308;46.312;25.288;2023-05-16T08:55:43;95784.47;;;22.53;50.86
50394;BME280;36308;46.312;25.288;2023-05-16T08:58:10;95773.50;;;22.53;50.56
50394;BME280;36308;46.312;25.288;2023-05-16T09:00:37;95782.66;;;22.70;50.47
50394;BME280;36308;46.312;25.288;2023-05-16T09:03:04;95777.44;;;22.77;50.28
50394;BME280;36308;46.312;25.288;2023-05-16T09:05:33;95777.63;;;22.84;50.26
50394;BME280;36308;46.312;25.288;2023-05-16T09:07:59;95777.88;;;22.91;50.32
50394;BME280;36308;46.312;25.288;2023-05-16T09:10:24;95784.38;;;22.99;50.20
50394;BME280;36308;46.312;25.288;2023-05-16T09:12:50;95774.34;;;23.03;49.88
50394;BME280;36308;46.312;25.288;2023-05-16T09:15:17;95781.56;;;23.08;49.89
50394;BME280;36308;46.312;25.288;2023-05-16T09:17:45;95784.06;;;23.13;49.90
50394;BME280;36308;46.312;25.288;2023-05-16T09:22:38;95766.41;;;23.26;49.25
50394;BME280;36308;46.312;25.288;2023-05-16T09:25:04;95772.13;;;23.33;48.97
50394;BME280;36308;46.312;25.288;2023-05-16T09:27:30;95770.03;;;23.43;48.69
50394;BME280;36308;46.312;25.288;2023-05-16T09:29:57;95769.81;;;23.48;48.60
50394;BME280;36308;46.312;25.288;2023-05-16T09:32:23;95774.47;;;23.59;48.71
50394;BME280;36308;46.312;25.288;2023-05-16T09:34:49;95770.44;;;23.69;48.61
50394;BME280;36308;46.312;25.288;2023-05-16T09:37:16;95771.47;;;23.77;48.73
50394;BME280;36308;46.312;25.288;2023-05-16T09:39:46;95777.25;;;23.88;48.60
50394;BME280;36308;46.312;25.288;2023-05-16T09:42:17;95767.63;;;23.94;48.30
50394;BME280;36308;46.312;25.288;2023-05-16T09:44:48;95770.56;;;24.01;48.44
50394;BME280;36308;46.312;25.288;2023-05-16T09:47:15;95768.00;;;24.08;48.10
50394;BME280;36308;46.312;25.288;2023-05-16T09:49:43;95768.19;;;24.15;48.22
50394;BME280;36308;46.312;25.288;2023-05-16T09:52:08;95768.72;;;24.21;48.09
50394;BME280;36308;46.312;25.288;2023-05-16T09:54:34;95761.03;;;24.27;47.97
50394;BME280;36308;46.312;25.288;2023-05-16T09:57:00;95754.47;;;24.31;48.19
50394;BME280;36308;46.312;25.288;2023-05-16T09:59:30;95766.81;;;24.37;48.05
50394;BME280;36308;46.312;25.288;2023-05-16T10:01:58;95766.19;;;24.44;48.00
50394;BME280;36308;46.312;25.288;2023-05-16T10:04:24;95755.56;;;24.43;47.67
50394;BME280;36308;46.312;25.288;2023-05-16T10:06:50;95752.66;;;24.51;47.74
50394;BME280;36308;46.312;25.288;2023-05-16T10:09:20;95759.94;;;24.59;47.61
50394;BME280;36308;46.312;25.288;2023-05-16T10:11:47;95761.19;;;24.62;47.47
50394;BME280;36308;46.312;25.288;2023-05-16T10:14:16;95753.09;;;24.69;47.55
50394;BME280;36308;46.312;25.288;2023-05-16T10:16:42;95744.69;;;24.78;47.46
50394;BME280;36308;46.312;25.288;2023-05-16T10:19:10;95729.41;;;24.80;47.01
50394;BME280;36308;46.312;25.288;2023-05-16T10:21:37;95747.56;;;25.01;47.10
50394;BME280;36308;46.312;25.288;2023-05-16T10:24:06;95745.50;;;25.14;46.93
50394;BME280;36308;46.312;25.288;2023-05-16T10:26:35;95747.44;;;25.29;46.60
50394;BME280;36308;46.312;25.288;2023-05-16T10:29:01;95727.16;;;25.37;46.04
50394;BME280;36308;46.312;25.288;2023-05-16T10:31:28;95740.94;;;25.57;46.15
50394;BME280;36308;46.312;25.288;2023-05-16T10:33:56;95735.31;;;25.69;45.69
50394;BME280;36308;46.312;25.288;2023-05-16T10:36:21;95736.72;;;25.83;45.29
50394;BME280;36308;46.312;25.288;2023-05-16T10:38:48;95730.78;;;26.00;45.05
50394;BME280;36308;46.312;25.288;2023-05-16T10:41:15;95729.47;;;26.13;44.80
50394;BME280;36308;46.312;25.288;2023-05-16T10:43:44;95729.78;;;26.31;44.57
50394;BME280;36308;46.312;25.288;2023-05-16T10:46:10;95732.84;;;26.49;44.48
50394;BME280;36308;46.312;25.288;2023-05-16T10:48:40;95729.22;;;26.65;43.98
50394;BME280;36308;46.312;25.288;2023-05-16T10:53:47;95727.72;;;26.97;43.25
50394;BME280;36308;46.312;25.288;2023-05-16T10:56:25;95723.19;;;27.09;42.68
50394;BME280;36308;46.312;25.288;2023-05-16T10:58:53;95727.28;;;27.22;42.19
50394;BME280;36308;46.312;25.288;2023-05-16T11:01:34;95717.56;;;27.28;41.96
50394;BME280;36308;46.312;25.288;2023-05-16T11:04:05;95721.16;;;27.32;41.17
50394;BME280;36308;46.312;25.288;2023-05-16T11:11:53;95717.25;;;27.37;40.63
50394;BME280;36308;46.312;25.288;2023-05-16T11:19:28;95718.16;;;27.45;40.87
50394;BME280;36308;46.312;25.288;2023-05-16T11:29:51;95705.00;;;27.65;39.74
50394;BME280;36308;46.312;25.288;2023-05-16T11:32:21;95701.84;;;27.66;39.33
50394;BME280;36308;46.312;25.288;2023-05-16T11:34:48;95708.19;;;27.67;39.14
50394;BME280;36308;46.312;25.288;2023-05-16T11:37:15;95693.97;;;27.68;38.63
50394;BME280;36308;46.312;25.288;2023-05-16T11:39:41;95694.03;;;27.72;38.81
50394;BME280;36308;46.312;25.288;2023-05-16T11:42:07;95679.81;;;27.70;38.69
50394;BME280;36308;46.312;25.288;2023-05-16T11:44:33;95681.53;;;27.81;38.21
50394;BME280;36308;46.312;25.288;2023-05-16T11:46:59;95685.56;;;27.88;38.02
50394;BME280;36308;46.312;25.288;2023-05-16T11:49:27;95677.28;;;27.88;37.78
50394;BME280;36308;46.312;25.288;2023-05-16T11:51:56;95680.50;;;27.97;37.82
50394;BME280;36308;46.312;25.288;2023-05-16T11:54:24;95682.53;;;28.00;37.69
50394;BME280;36308;46.312;25.288;2023-05-16T11:56:50;95682.19;;;28.05;37.66
50394;BME280;36308;46.312;25.288;2023-05-16T11:59:17;95664.81;;;28.05;37.44
50394;BME280;36308;46.312;25.288;2023-05-16T12:01:42;95675.50;;;28.10;37.41
50394;BME280;36308;46.312;25.288;2023-05-16T12:04:11;95675.59;;;28.17;37.15
50394;BME280;36308;46.312;25.288;2023-05-16T12:06:41;95658.19;;;28.13;36.91
50394;BME280;36308;46.312;25.288;2023-05-16T12:09:14;95669.28;;;28.16;36.80
50394;BME280;36308;46.312;25.288;2023-05-16T12:11:41;95653.03;;;28.11;36.58
50394;BME280;36308;46.312;25.288;2023-05-16T12:14:09;95655.44;;;28.16;36.26
50394;BME280;36308;46.312;25.288;2023-05-16T12:16:36;95666.94;;;28.18;35.63
50394;BME280;36308;46.312;25.288;2023-05-16T12:19:04;95653.44;;;28.13;35.07
50394;BME280;36308;46.312;25.288;2023-05-16T12:21:30;95654.25;;;28.17;35.14
50394;BME280;36308;46.312;25.288;2023-05-16T12:23:57;95653.53;;;28.20;35.07
50394;BME280;36308;46.312;25.288;2023-05-16T12:26:27;95648.00;;;28.20;34.92
50394;BME280;36308;46.312;25.288;2023-05-16T12:29:03;95644.81;;;28.22;34.96
50394;BME280;36308;46.312;25.288;2023-05-16T12:31:35;95650.75;;;28.24;34.94
50394;BME280;36308;46.312;25.288;2023-05-16T12:34:00;95645.28;;;28.28;35.03
50394;BME280;36308;46.312;25.288;2023-05-16T12:36:31;95652.41;;;28.29;35.00
50394;BME280;36308;46.312;25.288;2023-05-16T12:39:01;95642.88;;;28.23;34.77
50394;BME280;36308;46.312;25.288;2023-05-16T12:41:31;95652.00;;;28.30;34.61
50394;BME280;36308;46.312;25.288;2023-05-16T12:44:14;95642.19;;;28.33;34.64
50394;BME280;36308;46.312;25.288;2023-05-16T12:46:43;95649.69;;;28.36;34.35
50394;BME280;36308;46.312;25.288;2023-05-16T12:49:09;95648.13;;;28.35;34.19
50394;BME280;36308;46.312;25.288;2023-05-16T12:51:35;95646.53;;;28.37;33.94
50394;BME280;36308;46.312;25.288;2023-05-16T12:54:09;95648.53;;;28.40;33.43
50394;BME280;36308;46.312;25.288;2023-05-16T12:56:37;95649.75;;;28.43;33.26
50394;BME280;36308;46.312;25.288;2023-05-16T12:59:03;95639.50;;;28.44;33.14
50394;BME280;36308;46.312;25.288;2023-05-16T13:01:28;95643.81;;;28.41;33.22
50394;BME280;36308;46.312;25.288;2023-05-16T13:03:54;95643.41;;;28.42;32.77
50394;BME280;36308;46.312;25.288;2023-05-16T13:06:19;95635.53;;;28.41;32.83
50394;BME280;36308;46.312;25.288;2023-05-16T13:08:45;95641.84;;;28.45;32.45
50394;BME280;36308;46.312;25.288;2023-05-16T13:11:11;95639.50;;;28.47;32.06
50394;BME280;36308;46.312;25.288;2023-05-16T13:13:36;95636.34;;;28.49;32.31
50394;BME280;36308;46.312;25.288;2023-05-16T13:16:02;95643.88;;;28.48;32.07
50394;BME280;36308;46.312;25.288;2023-05-16T13:18:28;95638.69;;;28.43;32.05
50394;BME280;36308;46.312;25.288;2023-05-16T13:20:53;95643.41;;;28.42;31.99